Time;durP1;ratioP1;P1;durP2;ratioP2;P2;SDS_P1;SDS_P2;PMS_P1;PMS_P2;Temp;Humidity;BMP_temperature;BMP_pressure;BME280_temperature;BME280_humidity;BME280_pressure;Samples;Min_cycle;Max_cycle;Signal;HPM_P1;HPM_P2
2022/05/23 00:01:50;;;;;;;4.47;2.70;;;;;;;8.15;52.39;101049.22;4954258;28;20122;-63
2022/05/23 00:04:16;;;;;;;5.60;3.23;;;;;;;8.09;52.39;101053.25;4954386;28;20134;-64
2022/05/23 00:06:42;;;;;;;4.23;3.20;;;;;;;8.02;52.15;101046.84;4953898;28;20106;-64
2022/05/23 00:09:09;;;;;;;8.13;3.63;;;;;;;8.08;51.78;101068.34;4954031;28;20043;-63
2022/05/23 00:11:38;;;;;;;11.37;3.53;;;;;;;8.03;52.11;101064.44;4954255;29;20063;-63
2022/05/23 00:14:04;;;;;;;6.13;3.00;;;;;;;7.94;52.97;101049.34;4954120;28;20081;-63
2022/05/23 00:16:35;;;;;;;6.00;2.97;;;;;;;7.98;52.57;101071.97;4953935;28;20059;-62
2022/05/23 00:19:01;;;;;;;5.07;2.93;;;;;;;7.87;52.60;101053.53;4953934;29;20031;-62
2022/05/23 00:21:27;;;;;;;5.10;3.10;;;;;;;7.85;53.07;101058.16;4953908;28;20058;-63
2022/05/23 00:23:52;;;;;;;9.73;3.37;;;;;;;7.79;53.07;101056.84;4954093;28;20167;-62
2022/05/23 00:26:20;;;;;;;7.53;3.23;;;;;;;7.87;53.02;101074.75;4954179;29;20034;-62
2022/05/23 00:28:47;;;;;;;7.95;2.85;;;;;;;7.83;53.43;101073.34;4953976;28;20039;-62
2022/05/23 00:31:13;;;;;;;6.93;3.27;;;;;;;7.89;53.04;101080.75;4953950;28;20390;-63
2022/05/23 00:36:31;;;;;;;4.63;2.97;;;;;;;7.96;53.65;101084.53;4953932;28;20129;-63
2022/05/23 00:38:57;;;;;;;5.77;3.27;;;;;;;7.90;53.30;101069.19;4953923;29;20035;-64
2022/05/23 00:44:26;;;;;;;5.10;3.37;;;;;;;7.98;52.57;101066.66;4953914;28;20043;-63
2022/05/23 00:47:14;;;;;;;;;;;;;;;8.10;52.30;101092.09;4954447;28;20372;-63
2022/05/23 00:49:40;;;;;;;5.70;2.83;;;;;;;8.05;52.03;101081.88;4945921;29;19918;-62
2022/05/23 00:52:09;;;;;;;4.90;3.30;;;;;;;7.96;52.99;101065.97;4954948;29;20058;-62
2022/05/23 00:55:12;;;;;;;3.57;3.10;;;;;;;7.90;52.42;101058.56;4959230;28;20146;-63
2022/05/23 00:57:44;;;;;;;4.22;3.30;;;;;;;7.42;52.37;101001.00;4954345;29;20047;-63
2022/05/23 01:00:10;;;;;;;4.67;2.70;;;;;;;7.98;53.05;101071.97;4936506;29;20046;-63
2022/05/23 01:02:37;;;;;;;4.30;3.33;;;;;;;7.99;52.57;101084.25;4953640;28;20050;-64
2022/05/23 01:05:05;;;;;;;4.33;2.43;;;;;;;7.89;52.71;101062.19;4953350;28;20399;-62
2022/05/23 01:07:31;;;;;;;4.05;2.65;;;;;;;7.93;52.60;101074.19;4953595;29;20043;-62
2022/05/23 01:09:57;;;;;;;4.83;2.83;;;;;;;7.77;53.18;101064.13;4953375;28;20513;-63
2022/05/23 01:12:23;;;;;;;7.67;3.10;;;;;;;7.71;53.10;101065.50;4953726;29;20043;-63
2022/05/23 01:14:55;;;;;;;4.30;3.73;;;;;;;7.78;52.75;101087.84;4953581;29;20398;-61
2022/05/23 01:17:23;;;;;;;12.00;3.53;;;;;;;7.71;53.80;101085.88;4953583;29;20506;-62
2022/05/23 01:19:49;;;;;;;3.53;2.67;;;;;;;7.68;54.01;101091.44;4955461;28;20066;-63
2022/05/23 01:22:27;;;;;;;11.00;2.73;;;;;;;7.73;53.35;101095.38;4957126;28;20042;-62
2022/05/23 01:25:14;;;;;;;6.03;2.53;;;;;;;7.66;53.60;101088.09;4957271;29;20563;-63
2022/05/23 01:27:40;;;;;;;5.00;2.47;;;;;;;7.52;53.87;101075.22;4957113;28;20035;-62
2022/05/23 01:30:06;;;;;;;5.10;2.97;;;;;;;7.54;54.08;101098.00;4956817;28;20043;-64
2022/05/23 01:32:32;;;;;;;3.23;2.40;;;;;;;7.42;53.28;101080.50;4956951;29;20038;-64
2022/05/23 01:34:57;;;;;;;3.73;2.70;;;;;;;7.36;54.08;101084.53;4956926;29;20039;-62
2022/05/23 01:37:23;;;;;;;3.73;2.77;;;;;;;7.47;53.57;101089.72;4939805;29;20473;-62
2022/05/23 01:39:49;;;;;;;5.93;2.50;;;;;;;7.45;53.78;101086.34;4956799;29;20055;-62
2022/05/23 01:42:14;;;;;;;3.23;2.47;;;;;;;7.50;53.78;101087.75;4956644;29;20031;-61
2022/05/23 01:44:39;;;;;;;5.63;2.37;;;;;;;7.30;52.95;101055.09;4956745;29;20039;-63
2022/05/23 01:47:15;;;;;;;3.17;2.50;;;;;;;7.28;52.79;101049.09;4956490;29;20046;-63
2022/05/23 01:49:41;;;;;;;2.87;2.47;;;;;;;7.42;52.65;101091.09;4957165;28;20050;-63
2022/05/23 01:52:08;;;;;;;5.73;3.00;;;;;;;7.29;52.36;101069.31;4957330;28;20043;-62
2022/05/23 01:54:35;;;;;;;4.60;2.77;;;;;;;6.92;53.74;101022.16;4956941;29;20511;-64
2022/05/23 01:57:06;;;;;;;7.73;2.80;;;;;;;7.27;53.52;101085.34;4958995;28;20043;-64
2022/05/23 02:02:16;;;;;;;4.30;2.60;;;;;;;7.16;53.29;101074.81;4956598;28;20043;-62
2022/05/23 02:04:42;;;;;;;3.97;2.77;;;;;;;7.15;52.98;101078.44;4956378;28;20469;-62
2022/05/23 02:07:08;;;;;;;3.10;2.37;;;;;;;7.15;53.02;101079.28;4956281;28;20039;-62
2022/05/23 02:09:37;;;;;;;5.30;3.33;;;;;;;6.98;52.51;101049.94;4955949;28;20035;-62
2022/05/23 02:12:03;;;;;;;5.80;2.63;;;;;;;7.24;52.19;101088.25;4956090;28;20051;-62
2022/05/23 02:14:28;;;;;;;4.97;2.90;;;;;;;7.23;52.76;101085.72;4955966;29;20178;-63
2022/05/23 02:16:54;;;;;;;7.03;2.60;;;;;;;7.27;52.97;101092.44;4956226;28;20043;-61
2022/05/23 02:19:19;;;;;;;3.63;2.40;;;;;;;7.28;53.07;101097.59;4956438;28;20118;-62
2022/05/23 02:21:44;;;;;;;2.83;2.37;;;;;;;7.20;53.04;101073.56;4962165;29;20452;-62
2022/05/23 02:24:10;;;;;;;5.77;2.40;;;;;;;7.14;52.76;101074.94;4972679;28;20031;-61
2022/05/23 02:26:36;;;;;;;4.90;2.90;;;;;;;7.29;52.54;101101.09;4973119;28;20046;-61
2022/05/23 02:29:03;;;;;;;6.97;2.70;;;;;;;7.23;51.97;101085.72;4967817;28;20078;-63
2022/05/23 02:31:30;;;;;;;6.43;2.60;;;;;;;7.31;52.31;101094.69;4965207;28;20070;-61
2022/05/23 02:33:56;;;;;;;6.00;2.43;;;;;;;7.11;52.44;101053.19;4956826;28;20050;-65
2022/05/23 02:36:22;;;;;;;6.13;2.60;;;;;;;7.33;51.70;101094.56;4956330;29;20402;-62
2022/05/23 02:38:48;;;;;;;4.90;2.80;;;;;;;7.12;52.15;101047.75;4956032;28;20067;-64
2022/05/23 02:41:13;;;;;;;2.80;2.53;;;;;;;7.33;52.45;101087.44;4955566;29;20039;-63
2022/05/23 02:43:38;;;;;;;4.87;2.90;;;;;;;7.35;52.18;101085.50;4955745;28;20483;-64
2022/05/23 02:46:04;;;;;;;4.33;2.93;;;;;;;7.46;51.18;101092.50;4956018;29;20043;-63
2022/05/23 02:48:29;;;;;;;4.10;2.87;;;;;;;7.47;51.50;101075.63;4955543;29;20040;-62
2022/05/23 02:50:55;;;;;;;3.87;2.67;;;;;;;7.57;50.36;101089.75;4955501;29;20049;-63
2022/05/23 02:53:20;;;;;;;2.40;2.17;;;;;;;7.59;50.84;101085.16;4955624;29;20093;-64
2022/05/23 02:55:46;;;;;;;3.37;2.70;;;;;;;7.98;49.69;101074.63;4955332;28;20502;-63
2022/05/23 02:58:12;;;;;;;4.67;2.67;;;;;;;9.88;45.63;101096.53;4955560;29;20057;-64
2022/05/23 03:00:38;;;;;;;5.33;3.23;;;;;;;11.55;40.98;101035.09;4938263;29;20046;-63
2022/05/23 03:03:06;;;;;;;7.80;4.27;;;;;;;13.60;37.58;101070.38;4955215;29;20480;-63
2022/05/23 03:05:40;;;;;;;4.33;3.10;;;;;;;15.00;35.06;101093.28;4955240;29;20035;-63
2022/05/23 03:08:07;;;;;;;4.77;2.90;;;;;;;15.93;32.92;101091.88;4955078;28;20047;-63
2022/05/23 03:10:35;;;;;;;4.73;3.53;;;;;;;16.56;31.43;101076.78;4954850;29;20578;-63
2022/05/23 03:13:01;;;;;;;7.78;2.60;;;;;;;17.22;30.59;101099.66;4955310;29;20053;-62
2022/05/23 03:15:28;;;;;;;5.97;3.23;;;;;;;17.51;30.16;101093.19;4955063;29;20039;-63
2022/05/23 03:17:54;;;;;;;7.70;3.43;;;;;;;17.71;29.52;101092.47;4954932;29;20577;-62
2022/05/23 03:20:20;;;;;;;5.87;3.37;;;;;;;17.73;29.60;101103.88;4954815;29;20119;-64
2022/05/23 03:28:13;;;;;;;8.37;3.20;;;;;;;18.15;27.81;101092.81;4955406;29;20094;-63
2022/05/23 03:30:39;;;;;;;7.03;3.57;;;;;;;17.51;28.68;101098.56;4956765;28;20043;-63
2022/05/23 03:33:05;;;;;;;9.47;3.87;;;;;;;17.32;28.40;101042.75;4955243;29;20078;-62
2022/05/23 03:35:32;;;;;;;12.23;3.00;;;;;;;17.14;28.26;101115.97;4954740;28;20042;-63
2022/05/23 03:37:57;;;;;;;10.50;3.57;;;;;;;16.39;29.43;101097.72;4954575;28;20571;-63
2022/05/23 03:40:23;;;;;;;6.23;4.20;;;;;;;16.59;29.49;101114.03;4954815;29;20130;-65
2022/05/23 03:42:49;;;;;;;6.43;2.73;;;;;;;15.45;30.47;101104.88;4953761;28;20035;-62
2022/05/23 03:45:16;;;;;;;5.63;2.73;;;;;;;14.20;31.45;101096.47;4954509;28;20038;-62
2022/05/23 03:47:41;;;;;;;9.33;2.87;;;;;;;13.69;33.27;101100.63;4955131;29;20494;-64
2022/05/23 03:50:08;;;;;;;5.73;2.60;;;;;;;13.54;33.79;101086.28;4957781;28;20093;-62
2022/05/23 03:52:33;;;;;;;4.33;3.93;;;;;;;13.74;33.39;101094.72;4957901;28;20533;-62
2022/05/23 03:54:59;;;;;;;4.57;3.30;;;;;;;15.13;31.39;101104.22;4954564;28;20074;-62
2022/05/23 03:57:25;;;;;;;5.90;3.53;;;;;;;16.38;28.83;101110.34;4954282;28;20125;-61
2022/05/23 03:59:54;;;;;;;5.40;2.63;;;;;;;17.11;27.38;101088.63;4954284;29;20066;-65
2022/05/23 04:02:20;;;;;;;4.82;3.05;;;;;;;17.64;25.98;101097.81;4956618;29;20554;-62
2022/05/23 04:04:46;;;;;;;4.53;2.90;;;;;;;18.16;24.45;101085.56;4957211;28;20051;-64
2022/05/23 04:07:13;;;;;;;5.93;3.43;;;;;;;18.22;24.69;101074.81;4954089;29;20039;-63
2022/05/23 04:09:42;;;;;;;3.67;2.93;;;;;;;18.29;24.70;101109.03;4953828;28;20127;-64
2022/05/23 04:12:08;;;;;;;;;;;;;;;18.22;25.67;101103.63;4954370;28;20491;-64
2022/05/23 04:14:33;;;;;;;4.07;3.10;;;;;;;18.17;23.81;101117.69;4953942;29;19929;-62
2022/05/23 04:16:59;;;;;;;5.30;3.17;;;;;;;18.17;24.35;101093.44;4953689;28;20035;-63
2022/05/23 04:19:25;;;;;;;3.60;2.43;;;;;;;18.25;23.89;101095.97;4953968;28;20035;-62
2022/05/23 04:21:51;;;;;;;6.53;3.33;;;;;;;18.22;23.87;101100.94;4954140;28;20046;-62
2022/05/23 04:24:18;;;;;;;4.30;3.33;;;;;;;18.35;23.99;101081.25;4954028;29;20039;-63
2022/05/23 04:26:44;;;;;;;5.30;3.10;;;;;;;18.63;23.61;101098.09;4953804;28;20042;-63
2022/05/23 04:29:09;;;;;;;3.50;2.80;;;;;;;18.57;23.63;101090.81;4953694;29;20483;-62
2022/05/23 04:31:36;;;;;;;5.37;3.30;;;;;;;18.59;23.47;101083.34;4936398;28;20043;-63
2022/05/23 04:36:48;;;;;;;3.80;2.97;;;;;;;18.48;24.06;101073.16;4953827;29;20043;-66
2022/05/23 04:39:14;;;;;;;3.23;2.87;;;;;;;18.21;24.78;101073.16;4953240;29;20506;-62
2022/05/23 04:41:39;;;;;;;7.83;2.90;;;;;;;18.04;24.83;101087.19;4953705;29;20039;-64
2022/05/23 04:44:06;;;;;;;2.90;2.33;;;;;;;16.46;26.29;101082.47;4952098;28;20043;-62
2022/05/23 04:46:33;;;;;;;3.33;2.27;;;;;;;14.69;29.01;101077.34;4951930;29;20027;-61
2022/05/23 04:51:43;;;;;;;5.53;3.13;;;;;;;13.55;30.82;101093.31;4952591;29;20071;-63
2022/05/23 04:54:09;;;;;;;5.13;2.80;;;;;;;14.03;30.36;101094.06;4955156;28;20039;-63
2022/05/23 04:56:37;;;;;;;7.90;3.33;;;;;;;14.66;29.69;101090.28;4956072;28;20039;-64
2022/05/23 04:59:03;;;;;;;4.47;3.30;;;;;;;15.69;27.72;101064.34;4957083;28;20525;-64
2022/05/23 05:01:54;;;;;;;4.07;3.03;;;;;;;16.99;26.05;101081.06;4957544;28;20682;-65
2022/05/23 05:04:19;;;;;;;5.27;2.93;;;;;;;17.44;25.55;101075.34;4957547;29;20039;-65
2022/05/23 05:06:45;;;;;;;5.63;3.10;;;;;;;17.72;25.20;101088.75;4957360;29;20035;-64
2022/05/23 05:09:11;;;;;;;2.97;2.63;;;;;;;17.04;25.72;101089.38;4959051;29;20039;-66
2022/05/23 05:11:39;;;;;;;5.20;2.57;;;;;;;16.34;26.75;101086.72;4959533;29;20063;-63
2022/05/23 05:14:07;;;;;;;2.67;2.08;;;;;;;15.90;27.30;101086.88;4957167;28;20046;-63
2022/05/23 05:16:33;;;;;;;4.75;2.58;;;;;;;14.37;28.99;101040.91;4957107;28;20175;-66
2022/05/23 05:18:59;;;;;;;5.97;2.47;;;;;;;13.17;31.21;101085.09;4957118;29;20121;-62
2022/05/23 05:21:25;;;;;;;4.67;2.50;;;;;;;12.04;33.07;101011.19;4956875;28;20125;-63
2022/05/23 05:23:50;;;;;;;6.40;2.33;;;;;;;12.40;33.63;101095.31;4956974;29;20039;-62
2022/05/23 05:26:16;;;;;;;6.33;2.47;;;;;;;12.05;33.32;101029.72;4956624;28;20039;-64
2022/05/23 05:28:41;;;;;;;5.30;2.47;;;;;;;12.51;33.61;101072.81;4955252;29;20035;-70
2022/05/23 05:31:15;;;;;;;7.67;2.80;;;;;;;12.91;33.06;101068.41;4956468;28;20038;-69
2022/05/23 05:33:46;;;;;;;10.37;3.00;;;;;;;13.28;32.74;101071.34;4956781;28;20043;-67
2022/05/23 05:36:20;;;;;;;8.67;3.27;;;;;;;13.29;32.05;101062.31;4956723;29;20035;-66
2022/05/23 05:38:53;;;;;;;3.40;2.43;;;;;;;13.48;31.65;101082.47;4956847;28;20126;-66
2022/05/23 05:41:24;;;;;;;7.93;3.40;;;;;;;13.10;32.41;101052.00;4956791;28;20043;-69
2022/05/23 05:43:55;;;;;;;5.93;2.97;;;;;;;12.86;33.04;101033.34;4956747;28;20092;-70
2022/05/23 05:46:28;;;;;;;6.43;2.80;;;;;;;13.11;33.15;101080.41;4956790;28;20031;-69
2022/05/23 05:48:56;;;;;;;4.40;2.40;;;;;;;13.01;32.91;101064.56;4956897;28;20035;-71
2022/05/23 05:51:25;;;;;;;4.55;2.45;;;;;;;13.10;33.02;101072.56;4956772;28;20042;-65
2022/05/23 05:53:51;;;;;;;6.45;2.85;;;;;;;12.96;34.21;101079.41;4956661;29;20039;-75
2022/05/23 05:56:18;;;;;;;8.00;3.10;;;;;;;12.48;34.54;101017.03;4956383;29;20054;-74
2022/05/23 05:58:44;;;;;;;7.60;2.53;;;;;;;12.82;34.54;101074.78;4956668;28;20110;-71
2022/05/23 06:01:10;;;;;;;4.03;2.53;;;;;;;13.03;34.31;101088.44;4956023;29;20070;-71
2022/05/23 06:04:01;;;;;;;5.53;2.33;;;;;;;13.28;34.25;101065.16;4956365;28;20118;-70
2022/05/23 06:11:55;;;;;;;8.00;2.97;;;;;;;14.32;32.92;101063.91;4956160;29;20066;-65
2022/05/23 06:14:20;;;;;;;7.07;4.17;;;;;;;14.65;32.17;101048.41;4956523;28;20051;-71
2022/05/23 06:16:46;;;;;;;3.20;2.57;;;;;;;14.77;32.37;101079.13;4956758;28;20054;-69
2022/05/23 06:19:11;;;;;;;4.87;2.60;;;;;;;14.60;32.16;101062.34;4956193;29;20483;-71
2022/05/23 06:21:37;;;;;;;5.77;3.03;;;;;;;14.18;32.09;101026.19;4955947;28;20108;-66
2022/05/23 06:24:03;;;;;;;6.30;2.83;;;;;;;14.15;33.45;101055.13;4956096;28;20126;-69
2022/05/23 06:26:28;;;;;;;10.33;3.17;;;;;;;13.94;33.77;101055.81;4956267;28;20098;-71
2022/05/23 06:28:54;;;;;;;7.47;3.50;;;;;;;14.00;34.18;101064.97;4955943;28;20043;-69
2022/05/23 06:31:20;;;;;;;9.57;4.17;;;;;;;13.83;33.74;101016.03;4955593;28;20046;-66
2022/05/23 06:33:46;;;;;;;13.13;2.60;;;;;;;14.25;33.84;101069.16;4956144;29;20039;-67
2022/05/23 06:36:13;;;;;;;4.73;2.63;;;;;;;14.12;33.80;101072.41;4938621;29;20035;-74
2022/05/23 06:38:41;;;;;;;6.50;2.57;;;;;;;13.99;33.95;101066.81;4938732;29;20035;-70
2022/05/23 06:41:09;;;;;;;7.05;3.05;;;;;;;13.92;34.21;101047.97;4955570;29;20043;-69
2022/05/23 06:43:36;;;;;;;4.73;3.00;;;;;;;14.06;33.91;101045.50;4955691;28;20047;-71
2022/05/23 06:46:02;;;;;;;4.67;2.53;;;;;;;14.08;33.76;101035.44;4956434;29;20491;-72
2022/05/23 06:48:29;;;;;;;5.77;2.50;;;;;;;14.44;34.00;101046.41;4955895;28;20031;-70
2022/05/23 06:50:55;;;;;;;5.53;2.30;;;;;;;14.25;34.46;101016.41;4955239;28;20118;-64
2022/05/23 06:53:24;;;;;;;9.40;2.30;;;;;;;14.34;34.62;101054.66;4955144;28;20141;-68
2022/05/23 06:55:50;;;;;;;6.40;2.30;;;;;;;14.17;34.81;101050.47;4955357;28;20049;-66
2022/05/23 06:58:16;;;;;;;7.10;2.47;;;;;;;13.87;35.08;101033.41;4954969;28;20035;-68
2022/05/23 07:00:42;;;;;;;6.60;2.77;;;;;;;13.87;34.79;101054.81;4955179;29;20038;-70
2022/05/23 07:03:09;;;;;;;4.50;3.03;;;;;;;13.62;35.15;101038.09;4954928;28;20032;-67
2022/05/23 07:14:17;;;;;;;5.60;2.67;;;;;;;13.55;35.83;101055.84;4957183;29;20495;-68
2022/05/23 07:16:43;;;;;;;6.90;2.93;;;;;;;13.66;35.56;101046.59;4954509;28;20338;-68
2022/05/23 07:19:09;;;;;;;4.53;2.97;;;;;;;13.81;35.09;101045.66;4958592;28;20048;-67
2022/05/23 07:21:35;;;;;;;3.37;2.07;;;;;;;14.12;34.57;101059.00;4959676;28;20047;-65
2022/05/23 07:24:01;;;;;;;3.40;2.30;;;;;;;14.17;34.43;101055.81;4961464;28;20046;-69
2022/05/23 07:26:27;;;;;;;5.67;2.90;;;;;;;14.21;34.75;101062.50;4961733;29;20418;-68
2022/05/23 07:28:53;;;;;;;4.83;2.63;;;;;;;14.20;34.72;101061.66;4959401;29;20137;-66
2022/05/23 07:31:19;;;;;;;4.83;2.63;;;;;;;14.08;34.88;101046.16;4959028;28;20055;-66
2022/05/23 07:33:45;;;;;;;5.10;2.80;;;;;;;14.14;35.27;101056.16;4960236;29;20038;-69
2022/05/23 07:36:12;;;;;;;5.43;2.80;;;;;;;14.00;35.54;101064.97;4966299;28;20047;-70
2022/05/23 07:38:38;;;;;;;7.00;2.70;;;;;;;13.76;35.29;101048.03;4964455;29;20039;-69
2022/05/23 07:41:06;;;;;;;6.30;2.27;;;;;;;13.64;35.66;101041.44;4955456;28;20509;-68
2022/05/23 07:43:35;;;;;;;9.53;2.40;;;;;;;13.72;35.96;101057.44;4939879;29;20035;-71
2022/05/23 07:46:09;;;;;;;6.73;3.13;;;;;;;13.68;36.17;101050.78;4966167;29;20035;-65
2022/05/23 07:48:46;;;;;;;5.27;2.30;;;;;;;13.72;36.44;101073.50;4967306;28;20039;-65
2022/05/23 07:51:13;;;;;;;3.40;2.20;;;;;;;13.62;36.71;101075.56;4968507;29;20170;-65
2022/05/23 08:01:52;;;;;;;4.57;3.00;;;;;;;14.17;36.21;101045.09;4957201;28;20035;-72
2022/05/23 08:04:18;;;;;;;7.40;2.60;;;;;;;14.58;35.66;101053.66;4956179;28;20047;-65
2022/05/23 08:06:49;;;;;;;5.37;2.40;;;;;;;14.77;35.74;101057.69;4954845;28;20051;-69
2022/05/23 08:09:16;;;;;;;3.83;2.23;;;;;;;14.04;35.96;100969.88;4954869;28;20392;-71
2022/05/23 08:11:46;;;;;;;6.70;2.33;;;;;;;14.59;36.12;101057.19;4954670;28;20094;-73
2022/05/23 08:14:12;;;;;;;6.63;3.53;;;;;;;14.72;36.28;101076.13;4955736;28;20051;-69
2022/05/23 08:16:37;;;;;;;4.43;2.30;;;;;;;14.29;36.34;101038.31;4954881;29;20043;-69
2022/05/23 08:19:05;;;;;;;5.27;2.40;;;;;;;14.32;36.85;101064.72;4960357;28;20545;-68
2022/05/23 08:21:31;;;;;;;5.80;2.53;;;;;;;14.18;37.06;101052.13;4959089;28;20415;-67
2022/05/23 08:23:57;;;;;;;5.33;2.53;;;;;;;14.43;36.96;101072.38;4954118;29;20047;-69
2022/05/23 08:26:23;;;;;;;3.60;2.40;;;;;;;14.74;36.56;101066.91;4953862;28;20039;-68
2022/05/23 08:28:49;;;;;;;3.00;2.40;;;;;;;14.94;36.74;101058.34;4953385;28;20039;-71
2022/05/23 08:31:14;;;;;;;4.90;3.03;;;;;;;14.96;36.64;101053.63;4936878;28;20070;-70
2022/05/23 08:33:40;;;;;;;3.57;2.60;;;;;;;14.95;36.00;101044.75;4953622;29;20045;-66
2022/05/23 08:36:06;;;;;;;9.20;2.57;;;;;;;14.57;36.23;101009.94;4953822;29;20062;-67
2022/05/23 08:38:31;;;;;;;9.27;2.40;;;;;;;14.74;36.75;101052.66;4953633;28;20435;-69
2022/05/23 08:41:09;;;;;;;6.57;2.80;;;;;;;14.79;36.85;101052.97;4953750;29;20042;-68
2022/05/23 08:43:56;;;;;;;4.55;2.42;;;;;;;14.76;36.91;101042.63;4953485;28;20039;-68
2022/05/23 08:46:52;;;;;;;8.03;2.37;;;;;;;14.92;36.86;101063.06;4953658;29;20039;-72
2022/05/23 08:49:40;;;;;;;8.47;3.07;;;;;;;14.72;36.95;101047.47;4953709;29;20047;-72
2022/05/23 08:52:30;;;;;;;3.23;2.27;;;;;;;14.37;37.55;101054.31;4936322;28;20490;-72
2022/05/23 08:55:05;;;;;;;4.80;2.37;;;;;;;14.08;38.20;101040.81;4953820;28;20035;-72
2022/05/23 08:57:37;;;;;;;6.47;2.60;;;;;;;13.87;38.92;101038.75;4954172;29;20031;-70
2022/05/23 09:00:17;;;;;;;8.10;2.83;;;;;;;13.97;38.88;101027.84;4953690;28;20070;-72
2022/05/23 09:02:55;;;;;;;7.00;2.23;;;;;;;14.18;38.35;101042.25;4953891;29;20050;-70
2022/05/23 09:05:32;;;;;;;6.27;2.50;;;;;;;14.44;38.13;101035.69;4953635;29;20063;-62
2022/05/23 09:08:27;;;;;;;5.83;2.43;;;;;;;14.90;37.58;101030.22;4957306;28;20050;-68
2022/05/23 09:11:32;;;;;;;5.53;2.50;;;;;;;15.16;37.50;101031.44;4958266;28;20504;-72
2022/05/23 09:13:57;;;;;;;5.50;2.70;;;;;;;15.14;37.16;101041.50;4938586;29;20058;-70
2022/05/23 09:16:31;;;;;;;5.83;1.93;;;;;;;14.88;37.39;101025.88;4960119;29;20164;-72
2022/05/23 09:19:02;;;;;;;4.63;2.43;;;;;;;14.70;37.58;101024.56;4965353;28;20046;-68
2022/05/23 09:24:14;;;;;;;5.30;2.20;;;;;;;14.46;38.29;101029.16;4963602;28;20035;-68
2022/05/23 09:26:40;;;;;;;4.07;2.35;;;;;;;14.37;38.64;101022.16;4957551;28;20562;-72
2022/05/23 09:29:09;;;;;;;3.80;2.17;;;;;;;14.25;38.75;101000.34;4954234;28;20086;-75
2022/05/23 09:31:46;;;;;;;6.33;2.30;;;;;;;14.23;38.69;100990.81;4955192;28;20387;-75
2022/05/23 09:34:57;;;;;;;6.82;3.40;;;;;;;14.37;38.92;101014.13;4961823;28;20122;-64
2022/05/23 09:37:28;;;;;;;7.63;2.60;;;;;;;14.26;38.86;101002.00;4950208;29;20148;-69
2022/05/23 09:39:57;;;;;;;6.10;3.20;;;;;;;14.42;39.65;101017.06;4953834;28;20042;-71
2022/05/23 09:48:24;;;;;;;5.07;3.10;;;;;;;14.60;38.61;100991.84;4958680;28;20130;-65
2022/05/23 09:51:10;;;;;;;5.00;2.60;;;;;;;14.80;38.64;100995.66;4958434;29;20197;-67
2022/05/23 09:53:53;;;;;;;3.70;2.63;;;;;;;15.02;38.23;100996.53;4960695;29;20039;-66
2022/05/23 09:56:30;;;;;;;6.37;3.37;;;;;;;15.32;38.04;101002.72;4960236;29;20051;-66
2022/05/23 09:58:59;;;;;;;4.40;2.47;;;;;;;15.35;38.21;101002.38;4956364;29;20031;-67
2022/05/23 10:01:27;;;;;;;5.27;2.83;;;;;;;15.30;38.41;100991.34;4956279;29;20043;-70
2022/05/23 10:03:52;;;;;;;4.72;2.80;;;;;;;14.92;38.01;100948.56;4956467;28;20035;-65
2022/05/23 10:06:20;;;;;;;5.17;2.70;;;;;;;15.21;38.65;101000.53;4956325;28;20078;-67
2022/05/23 10:08:51;;;;;;;5.47;2.70;;;;;;;15.17;38.72;100978.59;4955986;28;20043;-66
2022/05/23 10:11:29;;;;;;;5.17;2.10;;;;;;;15.33;38.19;100999.88;4956207;28;20067;-65
2022/05/23 10:13:57;;;;;;;;;;;;;;;15.58;37.97;100989.63;4956389;28;20043;-65
2022/05/23 10:16:32;;;;;;;8.68;2.65;;;;;;;15.50;37.74;100973.63;4957019;28;19926;-67
2022/05/23 10:19:01;;;;;;;4.43;2.07;;;;;;;15.39;37.78;100984.88;4960540;28;20041;-72
2022/05/23 10:21:29;;;;;;;4.53;3.00;;;;;;;15.61;38.17;100980.38;4957752;28;20569;-72
2022/05/23 10:24:04;;;;;;;3.17;2.30;;;;;;;15.65;37.80;100985.19;4956204;29;20380;-65
2022/05/23 10:26:33;;;;;;;6.77;3.57;;;;;;;15.61;38.36;100981.22;4956007;28;20392;-63
2022/05/23 10:29:15;;;;;;;5.93;3.23;;;;;;;15.61;38.21;100991.97;4955679;29;20046;-70
2022/05/23 10:31:52;;;;;;;4.70;2.20;;;;;;;15.77;37.84;100991.72;4955759;29;20503;-71
2022/05/23 10:34:23;;;;;;;4.80;3.33;;;;;;;16.00;37.68;101001.44;4955604;28;20039;-66
2022/05/23 10:36:53;;;;;;;3.60;2.53;;;;;;;16.02;37.67;100983.28;4955860;29;20035;-65
2022/05/23 10:42:12;;;;;;;4.57;2.73;;;;;;;16.17;36.93;100989.41;4954748;29;20159;-68
2022/05/23 10:45:20;;;;;;;4.80;2.07;;;;;;;16.26;37.28;100979.38;4955184;28;20027;-68
2022/05/23 10:48:03;;;;;;;6.03;2.60;;;;;;;16.18;36.60;100977.63;4937989;29;20589;-67
2022/05/23 10:50:54;;;;;;;5.27;2.57;;;;;;;16.06;37.40;100977.31;4954971;28;20091;-66
2022/05/23 10:53:37;;;;;;;5.53;2.83;;;;;;;15.84;37.49;100972.16;4955531;28;20062;-68
2022/05/23 10:56:37;;;;;;;3.73;2.53;;;;;;;15.73;38.13;100974.31;4955692;28;20031;-71
2022/05/23 10:59:21;;;;;;;5.87;2.97;;;;;;;15.87;37.88;100969.91;4955622;28;20043;-67
2022/05/23 11:02:12;;;;;;;3.17;1.73;;;;;;;16.19;37.49;100965.00;4953771;29;20844;-70
2022/05/23 11:05:05;;;;;;;5.50;2.57;;;;;;;16.29;37.64;100974.44;5114379;23;20054;-63
2022/05/23 11:07:39;;;;;;;2.80;2.33;;;;;;;16.28;37.20;100972.75;4972496;28;20047;-66
2022/05/23 11:10:28;;;;;;;2.40;1.80;;;;;;;16.39;36.99;100980.28;4957005;28;20046;-62
2022/05/23 11:13:15;;;;;;;2.40;2.20;;;;;;;16.28;37.70;100982.69;4974138;28;20585;-64
2022/05/23 11:15:49;;;;;;;4.43;1.93;;;;;;;16.04;37.16;100975.84;4974622;28;20046;-66
2022/05/23 11:18:37;;;;;;;5.20;2.10;;;;;;;15.92;37.80;100982.78;4974173;28;20035;-62
2022/05/23 11:21:20;;;;;;;3.03;2.33;;;;;;;15.83;37.53;100970.47;4973806;28;20038;-61
2022/05/23 11:23:52;;;;;;;2.20;2.00;;;;;;;15.88;37.91;100976.09;4974059;28;20541;-62
2022/05/23 11:26:27;;;;;;;6.60;2.07;;;;;;;16.06;37.85;100974.63;4974809;28;20528;-70
2022/05/23 11:34:36;;;;;;;2.63;2.23;;;;;;;15.80;37.58;100967.16;4973882;28;20238;-67
2022/05/23 11:39:59;;;;;;;3.67;2.30;;;;;;;16.29;36.62;100963.69;4973605;28;20122;-68
2022/05/23 11:42:27;;;;;;;6.57;2.50;;;;;;;16.45;36.81;100967.09;4973529;28;20097;-66
2022/05/23 11:45:56;;;;;;;5.63;3.28;;;;;;;16.45;37.23;100961.72;4973813;28;20084;-65
2022/05/23 11:47:51;;;;;;;4.47;2.40;;;;;;;16.41;37.16;100972.84;4973320;28;20100;-63
2022/05/23 11:50:28;;;;;;;3.80;2.33;;;;;;;16.24;37.99;100971.50;4955830;28;20464;-67
2022/05/23 11:53:26;;;;;;;3.70;2.60;;;;;;;16.14;37.57;100970.97;4973709;28;20038;-64
2022/05/23 11:55:52;;;;;;;3.95;2.78;;;;;;;16.08;38.00;100977.13;4973337;28;20035;-64
2022/05/23 11:58:36;;;;;;;9.50;3.00;;;;;;;15.96;38.47;100984.88;4973453;28;20034;-64
2022/05/23 12:01:10;;;;;;;5.03;2.97;;;;;;;15.79;38.49;100976.25;4973459;28;20034;-62
2022/05/23 12:03:51;;;;;;;3.33;2.30;;;;;;;16.03;38.23;100963.44;4973007;28;20043;-61
2022/05/23 12:06:29;;;;;;;3.67;2.60;;;;;;;16.12;37.96;100962.28;4973068;28;20054;-64
2022/05/23 12:09:01;;;;;;;8.03;2.73;;;;;;;16.24;37.67;100966.13;4973071;28;20047;-64
2022/05/23 12:11:31;;;;;;;3.57;2.23;;;;;;;16.29;37.55;100963.69;4973157;28;20047;-62
2022/05/23 12:14:17;;;;;;;3.43;2.27;;;;;;;16.47;37.48;100957.78;4973354;28;20070;-64
2022/05/23 12:17:11;;;;;;;5.70;2.57;;;;;;;16.54;37.35;100955.16;4973110;28;20038;-63
2022/05/23 12:19:39;;;;;;;4.37;2.07;;;;;;;16.75;37.27;100957.78;4965120;28;20047;-64
2022/05/23 12:22:20;;;;;;;;;;;;;;;16.93;37.34;100950.03;4972427;28;20053;-62
2022/05/23 12:25:08;;;;;;;9.40;2.67;;;;;;;16.99;37.07;100948.41;4973040;28;20389;-65
2022/05/23 12:27:35;;;;;;;;;;;;;;;17.15;36.67;100952.63;4963962;28;20042;-63
2022/05/23 12:30:20;;;;;;;3.30;1.67;;;;;;;17.15;36.47;100952.63;4972884;28;20017;-63
2022/05/23 12:33:18;;;;;;;4.30;2.00;;;;;;;16.97;36.85;100950.47;4972754;28;20486;-62
2022/05/23 12:35:44;;;;;;;;;;;;;;;16.79;37.47;100959.09;4967927;28;20087;-64
2022/05/23 12:38:31;;;;;;;2.50;2.30;;;;;;;16.63;37.10;100954.81;4972691;28;19922;-66
2022/05/23 12:41:19;;;;;;;3.17;2.40;;;;;;;16.46;38.04;100950.75;4973462;28;20409;-64
2022/05/23 12:43:54;;;;;;;4.07;2.88;;;;;;;16.46;37.81;100949.91;4972938;28;20031;-65
2022/05/23 12:46:19;;;;;;;3.23;2.30;;;;;;;16.38;37.86;100954.44;4972763;28;20057;-67
2022/05/23 12:49:08;;;;;;;10.70;3.20;;;;;;;16.32;40.57;100959.75;4972878;28;20042;-63